Amanecer — EAEP — position and weather

sailwx.info

Track history (hours):
 
Tides and Currents Weather Stations Pressure Air Temp Water Temp Dewpoint Dewpoint Depression Visibility Wind Speed Wind Dir Waves Ship Positions

Amanecer

Last reported at 2017-Sep-23 22:29 UTC. Time now 2017-Sep-24 00:01 UTC.
Position N 28°30' W 016°12'.

Length 26 m; draft 3 m.

Type: Fishing. MMSI: 225985323.

Date/timePositionNaut miles runAvg speedWind from/ knotsBaromVisibWave heightAir tempDewpointWater temp
2017-Sep-23 22:29N 28°30' W 016°12'1 0.0
2017-Sep-21 23:45N 28°30' W 016°11'2 8.6
2017-Sep-21 23:28N 28°31' W 016°08'11 6.0
2017-Sep-21 21:42N 28°41' W 016°10'28 8.0
2017-Sep-21 18:11N 28°42' W 016°42'3 0.8
2017-Sep-21 15:12N 28°43' W 016°45'14 1.4
2017-Sep-21 05:13N 28°52' W 016°34'1 0.7
2017-Sep-21 03:14N 28°53' W 016°32'0 0.8
2017-Sep-21 02:53N 28°53' W 016°32'0 0.7
2017-Sep-21 02:24N 28°52' W 016°32'0 0.4
2017-Sep-21 01:24N 28°53' W 016°31'0 0.8
2017-Sep-21 00:54N 28°53' W 016°31'10 0.6
2017-Sep-20 05:50N 28°54' W 016°19'1 1.9
2017-Sep-20 05:21N 28°54' W 016°18'1 1.7
2017-Sep-20 04:51N 28°54' W 016°17'1 2.3
2017-Sep-20 04:30N 28°54' W 016°16'1 2.2
2017-Sep-20 03:55N 28°54' W 016°15'1 2.1
2017-Sep-20 03:30N 28°54' W 016°14'1 2.0
2017-Sep-20 03:00N 28°55' W 016°13'1 1.8
2017-Sep-20 02:30N 28°55' W 016°12'1 1.8
2017-Sep-20 01:54N 28°54' W 016°11'1 1.9
2017-Sep-20 01:16N 28°54' W 016°09'0 1.9
2017-Sep-20 01:00N 28°54' W 016°09'1 2.0
2017-Sep-20 00:30N 28°54' W 016°08'1 2.0
2017-Sep-19 23:52N 28°53' W 016°06'1 2.0
2017-Sep-19 23:26N 28°53' W 016°05'2 2.1
2017-Sep-19 22:18N 28°52' W 016°03'2 2.0
2017-Sep-19 21:22N 28°52' W 016°01'1 2.0
2017-Sep-19 21:00N 28°52' W 015°60'1 1.9
2017-Sep-19 20:30N 28°52' W 015°59'1 1.8
2017-Sep-19 19:52N 28°52' W 015°57'1 1.4
2017-Sep-19 18:48N 28°52' W 015°56'2 1.6
2017-Sep-19 17:40N 28°52' W 015°54'0 1.7
2017-Sep-19 17:29N 28°52' W 015°53'1 1.8
2017-Sep-19 17:00N 28°52' W 015°52'1 1.8
2017-Sep-19 16:30N 28°52' W 015°51'1 1.8
2017-Sep-19 16:00N 28°52' W 015°50'1 1.8
2017-Sep-19 15:29N 28°52' W 015°49'1 1.9
2017-Sep-19 14:55N 28°52' W 015°48'1 1.9
2017-Sep-19 14:30N 28°52' W 015°47'1 1.9
2017-Sep-19 14:00N 28°53' W 015°46'1 2.0
2017-Sep-19 13:30N 28°53' W 015°45'1 1.9
2017-Sep-19 13:00N 28°53' W 015°44'1 1.9
2017-Sep-19 12:30N 28°53' W 015°43'1 1.9
2017-Sep-19 12:00N 28°54' W 015°42'1 1.9
2017-Sep-19 11:30N 28°54' W 015°41'1 1.7
2017-Sep-19 11:00N 28°54' W 015°40'1 1.8
2017-Sep-19 10:30N 28°54' W 015°39'1 1.8
2017-Sep-19 10:00N 28°55' W 015°38'1 1.9
2017-Sep-19 09:30N 28°55' W 015°37'1 2.0
2017-Sep-19 08:58N 28°55' W 015°36'1 2.0
2017-Sep-19 08:30N 28°55' W 015°35'1 2.1
2017-Sep-19 08:00N 28°56' W 015°34'1 2.1
2017-Sep-19 07:30N 28°57' W 015°33'1 2.1
2017-Sep-19 07:00N 28°57' W 015°32'1 2.2
2017-Sep-19 06:30N 28°58' W 015°32'1 2.2
2017-Sep-19 06:00N 28°58' W 015°30'1 2.1
2017-Sep-19 05:30N 28°58' W 015°29'1 2.1
2017-Sep-19 05:00N 28°58' W 015°28'1 2.1
2017-Sep-19 04:28N 28°58' W 015°27'1 2.1
2017-Sep-19 03:58N 28°58' W 015°25'2 2.1
2017-Sep-19 03:05N 28°58' W 015°23'0 2.3
2017-Sep-19 03:00N 28°58' W 015°23'1 2.2
2017-Sep-19 02:30N 28°58' W 015°22'1 2.1
2017-Sep-19 02:00N 28°58' W 015°21'1 1.9
2017-Sep-19 01:30N 28°58' W 015°19'1 1.8
2017-Sep-19 01:00N 28°58' W 015°18'1 1.8
2017-Sep-19 00:12N 28°58' W 015°17'0 1.8
2017-Sep-18 23:59N 28°58' W 015°16'1 1.7
2017-Sep-18 23:23N 28°58' W 015°15'1 1.5
2017-Sep-18 22:57N 28°58' W 015°14'1 1.5
2017-Sep-18 22:25N 28°58' W 015°14'1 1.4
2017-Sep-18 21:56N 28°58' W 015°13'1 1.4
2017-Sep-18 21:30N 28°57' W 015°12'1 1.4
2017-Sep-18 21:00N 28°57' W 015°11'1 1.6
2017-Sep-18 20:30N 28°58' W 015°10'1 1.8
2017-Sep-18 20:00N 28°58' W 015°10'1 1.7
2017-Sep-18 19:27N 28°58' W 015°09'55 1.5
2017-Sep-17 07:06N 29°10' W 014°07'0 1.6
2017-Sep-17 07:00N 29°10' W 014°07'1 1.7
2017-Sep-17 06:29N 29°11' W 014°06'1 1.4
2017-Sep-17 06:00N 29°12' W 014°05'0 0.9
2017-Sep-17 05:29N 29°12' W 014°05'1 0.9
2017-Sep-17 04:41N 29°12' W 014°04'0 0.9
2017-Sep-17 04:28N 29°13' W 014°04'0 0.9
2017-Sep-17 04:00N 29°13' W 014°04'1 0.8
2017-Sep-17 03:08N 29°13' W 014°03'1 0.8
2017-Sep-17 02:20N 29°14' W 014°03'0 0.8
2017-Sep-17 02:00N 29°14' W 014°03'0 0.8
2017-Sep-17 01:29N 29°14' W 014°02'1 0.9
2017-Sep-17 00:30N 29°15' W 014°01'0 0.9
2017-Sep-17 00:00N 29°15' W 014°01'1 0.9
2017-Sep-16 23:24N 29°15' W 014°00'0 0.9
2017-Sep-16 22:59N 29°15' W 013°60'0 0.9
2017-Sep-16 22:27N 29°16' W 013°59'1 0.9
2017-Sep-16 21:21N 29°16' W 013°58'0 0.9
2017-Sep-16 20:56N 29°16' W 013°58'0 0.9
2017-Sep-16 20:29N 29°17' W 013°58'1 1.0
2017-Sep-16 19:04N 29°18' W 013°58'3 4.7
2017-Sep-16 18:27N 29°16' W 014°01'2 4.6
2017-Sep-16 17:59N 29°15' W 014°03'2 4.7
2017-Sep-16 17:28N 29°14' W 014°05'2 3.6
2017-Sep-16 17:00N 29°13' W 014°07'3 5.7
2017-Sep-16 16:27N 29°15' W 014°10'4 8.5
2017-Sep-16 16:00N 29°18' W 014°12'6 4.4
2017-Sep-16 14:39N 29°21' W 014°18'3 2.9
2017-Sep-16 13:44N 29°21' W 014°21'1 3.1
2017-Sep-16 13:30N 29°20' W 014°21'16 2.9
2017-Sep-16 07:52N 29°15' W 014°39'2 3.5
2017-Sep-16 07:21N 29°13' W 014°40'1 4.1
2017-Sep-16 07:00N 29°12' W 014°41'4 4.0
2017-Sep-16 06:02N 29°10' W 014°45'0 4.2
2017-Sep-16 05:58N 29°10' W 014°45'2 3.9
2017-Sep-16 05:23N 29°09' W 014°47'2 4.0
2017-Sep-16 04:54N 29°08' W 014°49'78 4.5
2017-Sep-15 11:39N 28°31' W 016°08'4 1.5
2017-Sep-15 09:09N 28°30' W 016°12'0 0.0
2017-Sep-15 09:00N 28°30' W 016°12'  
Track history (hours):
 
Tides and Currents Weather Stations Pressure Air Temp Water Temp Dewpoint Dewpoint Depression Visibility Wind Speed Wind Dir Waves Ship Positions

Amanecer

Last reported at 2017-Sep-23 22:29 UTC. Time now 2017-Sep-24 00:01 UTC.
Position N 28°30' W 016°12'.

Length 26 m; draft 3 m.

Type: Fishing. MMSI: 225985323.

Date/timePositionNaut miles runAvg speedWind from/ knotsBaromVisibWave heightAir tempDewpointWater temp
2017-Sep-23 22:29N 28°30' W 016°12'1 0.0
2017-Sep-21 23:45N 28°30' W 016°11'2 8.6
2017-Sep-21 23:28N 28°31' W 016°08'11 6.0
2017-Sep-21 21:42N 28°41' W 016°10'28 8.0
2017-Sep-21 18:11N 28°42' W 016°42'3 0.8
2017-Sep-21 15:12N 28°43' W 016°45'14 1.4
2017-Sep-21 05:13N 28°52' W 016°34'1 0.7
2017-Sep-21 03:14N 28°53' W 016°32'0 0.8
2017-Sep-21 02:53N 28°53' W 016°32'0 0.7
2017-Sep-21 02:24N 28°52' W 016°32'0 0.4
2017-Sep-21 01:24N 28°53' W 016°31'0 0.8
2017-Sep-21 00:54N 28°53' W 016°31'10 0.6
2017-Sep-20 05:50N 28°54' W 016°19'1 1.9
2017-Sep-20 05:21N 28°54' W 016°18'1 1.7
2017-Sep-20 04:51N 28°54' W 016°17'1 2.3
2017-Sep-20 04:30N 28°54' W 016°16'1 2.2
2017-Sep-20 03:55N 28°54' W 016°15'1 2.1
2017-Sep-20 03:30N 28°54' W 016°14'1 2.0
2017-Sep-20 03:00N 28°55' W 016°13'1 1.8
2017-Sep-20 02:30N 28°55' W 016°12'1 1.8
2017-Sep-20 01:54N 28°54' W 016°11'1 1.9
2017-Sep-20 01:16N 28°54' W 016°09'0 1.9
2017-Sep-20 01:00N 28°54' W 016°09'1 2.0
2017-Sep-20 00:30N 28°54' W 016°08'1 2.0
2017-Sep-19 23:52N 28°53' W 016°06'1 2.0
2017-Sep-19 23:26N 28°53' W 016°05'2 2.1
2017-Sep-19 22:18N 28°52' W 016°03'2 2.0
2017-Sep-19 21:22N 28°52' W 016°01'1 2.0
2017-Sep-19 21:00N 28°52' W 015°60'1 1.9
2017-Sep-19 20:30N 28°52' W 015°59'1 1.8
2017-Sep-19 19:52N 28°52' W 015°57'1 1.4
2017-Sep-19 18:48N 28°52' W 015°56'2 1.6
2017-Sep-19 17:40N 28°52' W 015°54'0 1.7
2017-Sep-19 17:29N 28°52' W 015°53'1 1.8
2017-Sep-19 17:00N 28°52' W 015°52'1 1.8
2017-Sep-19 16:30N 28°52' W 015°51'1 1.8
2017-Sep-19 16:00N 28°52' W 015°50'1 1.8
2017-Sep-19 15:29N 28°52' W 015°49'1 1.9
2017-Sep-19 14:55N 28°52' W 015°48'1 1.9
2017-Sep-19 14:30N 28°52' W 015°47'1 1.9
2017-Sep-19 14:00N 28°53' W 015°46'1 2.0
2017-Sep-19 13:30N 28°53' W 015°45'1 1.9
2017-Sep-19 13:00N 28°53' W 015°44'1 1.9
2017-Sep-19 12:30N 28°53' W 015°43'1 1.9
2017-Sep-19 12:00N 28°54' W 015°42'1 1.9
2017-Sep-19 11:30N 28°54' W 015°41'1 1.7
2017-Sep-19 11:00N 28°54' W 015°40'1 1.8
2017-Sep-19 10:30N 28°54' W 015°39'1 1.8
2017-Sep-19 10:00N 28°55' W 015°38'1 1.9
2017-Sep-19 09:30N 28°55' W 015°37'1 2.0
2017-Sep-19 08:58N 28°55' W 015°36'1 2.0
2017-Sep-19 08:30N 28°55' W 015°35'1 2.1
2017-Sep-19 08:00N 28°56' W 015°34'1 2.1
2017-Sep-19 07:30N 28°57' W 015°33'1 2.1
2017-Sep-19 07:00N 28°57' W 015°32'1 2.2
2017-Sep-19 06:30N 28°58' W 015°32'1 2.2
2017-Sep-19 06:00N 28°58' W 015°30'1 2.1
2017-Sep-19 05:30N 28°58' W 015°29'1 2.1
2017-Sep-19 05:00N 28°58' W 015°28'1 2.1
2017-Sep-19 04:28N 28°58' W 015°27'1 2.1
2017-Sep-19 03:58N 28°58' W 015°25'2 2.1
2017-Sep-19 03:05N 28°58' W 015°23'0 2.3
2017-Sep-19 03:00N 28°58' W 015°23'1 2.2
2017-Sep-19 02:30N 28°58' W 015°22'1 2.1
2017-Sep-19 02:00N 28°58' W 015°21'1 1.9
2017-Sep-19 01:30N 28°58' W 015°19'1 1.8
2017-Sep-19 01:00N 28°58' W 015°18'1 1.8
2017-Sep-19 00:12N 28°58' W 015°17'0 1.8
2017-Sep-18 23:59N 28°58' W 015°16'1 1.7
2017-Sep-18 23:23N 28°58' W 015°15'1 1.5
2017-Sep-18 22:57N 28°58' W 015°14'1 1.5
2017-Sep-18 22:25N 28°58' W 015°14'1 1.4
2017-Sep-18 21:56N 28°58' W 015°13'1 1.4
2017-Sep-18 21:30N 28°57' W 015°12'1 1.4
2017-Sep-18 21:00N 28°57' W 015°11'1 1.6
2017-Sep-18 20:30N 28°58' W 015°10'1 1.8
2017-Sep-18 20:00N 28°58' W 015°10'1 1.7
2017-Sep-18 19:27N 28°58' W 015°09'55 1.5
2017-Sep-17 07:06N 29°10' W 014°07'0 1.6
2017-Sep-17 07:00N 29°10' W 014°07'1 1.7
2017-Sep-17 06:29N 29°11' W 014°06'1 1.4
2017-Sep-17 06:00N 29°12' W 014°05'0 0.9
2017-Sep-17 05:29N 29°12' W 014°05'1 0.9
2017-Sep-17 04:41N 29°12' W 014°04'0 0.9
2017-Sep-17 04:28N 29°13' W 014°04'0 0.9
2017-Sep-17 04:00N 29°13' W 014°04'1 0.8
2017-Sep-17 03:08N 29°13' W 014°03'1 0.8
2017-Sep-17 02:20N 29°14' W 014°03'0 0.8
2017-Sep-17 02:00N 29°14' W 014°03'0 0.8
2017-Sep-17 01:29N 29°14' W 014°02'1 0.9
2017-Sep-17 00:30N 29°15' W 014°01'0 0.9
2017-Sep-17 00:00N 29°15' W 014°01'1 0.9
2017-Sep-16 23:24N 29°15' W 014°00'0 0.9
2017-Sep-16 22:59N 29°15' W 013°60'0 0.9
2017-Sep-16 22:27N 29°16' W 013°59'1 0.9
2017-Sep-16 21:21N 29°16' W 013°58'0 0.9
2017-Sep-16 20:56N 29°16' W 013°58'0 0.9
2017-Sep-16 20:29N 29°17' W 013°58'1 1.0
2017-Sep-16 19:04N 29°18' W 013°58'3 4.7
2017-Sep-16 18:27N 29°16' W 014°01'2 4.6
2017-Sep-16 17:59N 29°15' W 014°03'2 4.7
2017-Sep-16 17:28N 29°14' W 014°05'2 3.6
2017-Sep-16 17:00N 29°13' W 014°07'3 5.7
2017-Sep-16 16:27N 29°15' W 014°10'4 8.5
2017-Sep-16 16:00N 29°18' W 014°12'6 4.4
2017-Sep-16 14:39N 29°21' W 014°18'3 2.9
2017-Sep-16 13:44N 29°21' W 014°21'1 3.1
2017-Sep-16 13:30N 29°20' W 014°21'16 2.9
2017-Sep-16 07:52N 29°15' W 014°39'2 3.5
2017-Sep-16 07:21N 29°13' W 014°40'1 4.1
2017-Sep-16 07:00N 29°12' W 014°41'4 4.0
2017-Sep-16 06:02N 29°10' W 014°45'0 4.2
2017-Sep-16 05:58N 29°10' W 014°45'2 3.9
2017-Sep-16 05:23N 29°09' W 014°47'2 4.0
2017-Sep-16 04:54N 29°08' W 014°49'78 4.5
2017-Sep-15 11:39N 28°31' W 016°08'4 1.5
2017-Sep-15 09:09N 28°30' W 016°12'0 0.0
2017-Sep-15 09:00N 28°30' W 016°12'  

Dump ship's entire track history